ANS900 SAEZ-SAAV
Flight info
| Callsign | ANS900 |
|---|---|
| Flight time | 0h 45m |
| Altitude | 24000 |
| Route | BIVAM3A BIVAM W8 PAR DCT SVO |
| Aircraft | B738/M-MSDFGHILRVW/LB1 |
Departure
| Time | 2026-04-30 21:13 |
|---|---|
| Airport | Ezeiza International Airport - Ministro Pistarini (SAEZ) |
Arrival
| Time | 2026-04-30 21:58 |
|---|---|
| Airport | Sauce Viejo Airport (SAAV) |
| Time | Latitude | Longitude | Altitude | Speed | Heading |
|---|---|---|---|---|---|
| 2026-04-30 20:46 | -34.81028 | -58.53707 | 74 ft | 0 kts | 252° |
| 2026-04-30 21:00 | -34.81021 | -58.53678 | 66 ft | 4 kts | 252° |
| 2026-04-30 21:01 | -34.81007 | -58.53620 | 65 ft | 4 kts | 245° |
| 2026-04-30 21:01 | -34.80992 | -58.53598 | 64 ft | 4 kts | 195° |
| 2026-04-30 21:01 | -34.80957 | -58.53603 | 67 ft | 0 kts | 164° |
| 2026-04-30 21:04 | -34.81019 | -58.53581 | 68 ft | 9 kts | 163° |
| 2026-04-30 21:05 | -34.81081 | -58.53558 | 72 ft | 10 kts | 164° |
| 2026-04-30 21:05 | -34.81148 | -58.53568 | 75 ft | 10 kts | 207° |
| 2026-04-30 21:05 | -34.81220 | -58.53590 | 66 ft | 11 kts | 179° |
| 2026-04-30 21:05 | -34.81296 | -58.53587 | 69 ft | 11 kts | 179° |
| 2026-04-30 21:06 | -34.81371 | -58.53593 | 70 ft | 11 kts | 188° |
| 2026-04-30 21:06 | -34.81448 | -58.53619 | 66 ft | 12 kts | 198° |
| 2026-04-30 21:06 | -34.81534 | -58.53668 | 74 ft | 16 kts | 209° |
| 2026-04-30 21:06 | -34.81619 | -58.53756 | 67 ft | 16 kts | 223° |
| 2026-04-30 21:07 | -34.81698 | -58.53848 | 70 ft | 15 kts | 231° |
| 2026-04-30 21:07 | -34.81752 | -58.53956 | 70 ft | 15 kts | 239° |
| 2026-04-30 21:07 | -34.81792 | -58.54067 | 70 ft | 14 kts | 261° |
| 2026-04-30 21:07 | -34.81783 | -58.54183 | 74 ft | 13 kts | 279° |
| 2026-04-30 21:08 | -34.81772 | -58.54299 | 72 ft | 15 kts | 276° |
| 2026-04-30 21:08 | -34.81755 | -58.54432 | 74 ft | 17 kts | 278° |
| 2026-04-30 21:08 | -34.81757 | -58.54570 | 74 ft | 16 kts | 258° |
| 2026-04-30 21:08 | -34.81780 | -58.54704 | 68 ft | 16 kts | 266° |
| 2026-04-30 21:09 | -34.81766 | -58.54830 | 74 ft | 15 kts | 282° |
| 2026-04-30 21:09 | -34.81744 | -58.54953 | 74 ft | 14 kts | 283° |
| 2026-04-30 21:09 | -34.81723 | -58.55068 | 71 ft | 14 kts | 282° |
| 2026-04-30 21:09 | -34.81702 | -58.55181 | 70 ft | 13 kts | 283° |
| 2026-04-30 21:10 | -34.81702 | -58.55286 | 73 ft | 13 kts | 246° |
| 2026-04-30 21:10 | -34.81772 | -58.55342 | 75 ft | 12 kts | 185° |
| 2026-04-30 21:10 | -34.81853 | -58.55311 | 69 ft | 12 kts | 163° |
| 2026-04-30 21:10 | -34.81915 | -58.55284 | 77 ft | 9 kts | 108° |
| 2026-04-30 21:11 | -34.81918 | -58.55269 | 76 ft | 0 kts | 103° |
| 2026-04-30 21:12 | -34.81922 | -58.55245 | 77 ft | 19 kts | 102° |
| 2026-04-30 21:12 | -34.82004 | -58.54789 | 80 ft | 90 kts | 103° |
| 2026-04-30 21:13 | -34.82181 | -58.53790 | 81 ft | 149 kts | 101° |
| 2026-04-30 21:13 | -34.82414 | -58.52447 | 507 ft | 165 kts | 99° |
| 2026-04-30 21:13 | -34.82726 | -58.51069 | 1172 ft | 178 kts | 115° |
| 2026-04-30 21:13 | -34.83635 | -58.49901 | 1623 ft | 203 kts | 143° |
| 2026-04-30 21:14 | -34.84899 | -58.49000 | 2132 ft | 219 kts | 141° |
| 2026-04-30 21:14 | -34.85840 | -58.47559 | 2598 ft | 221 kts | 111° |
| 2026-04-30 21:14 | -34.86497 | -58.45788 | 2952 ft | 238 kts | 111° |
| 2026-04-30 21:14 | -34.87208 | -58.43897 | 3335 ft | 257 kts | 112° |
| 2026-04-30 21:15 | -34.88096 | -58.41887 | 3765 ft | 275 kts | 122° |
| 2026-04-30 21:15 | -34.89339 | -58.40078 | 4529 ft | 282 kts | 136° |
| 2026-04-30 21:15 | -34.90984 | -58.38745 | 5223 ft | 289 kts | 160° |
| 2026-04-30 21:15 | -34.92940 | -58.38450 | 6136 ft | 283 kts | 190° |
| 2026-04-30 21:16 | -34.94770 | -58.39281 | 6808 ft | 283 kts | 219° |
| 2026-04-30 21:16 | -34.96096 | -58.41047 | 7301 ft | 289 kts | 244° |
| 2026-04-30 21:16 | -34.96678 | -58.43354 | 8001 ft | 282 kts | 270° |
| 2026-04-30 21:16 | -34.96384 | -58.45654 | 8956 ft | 271 kts | 294° |
| 2026-04-30 21:17 | -34.95351 | -58.47527 | 9820 ft | 269 kts | 317° |
| 2026-04-30 21:17 | -34.93829 | -58.48859 | 10570 ft | 270 kts | 330° |
| 2026-04-30 21:17 | -34.92078 | -58.49717 | 11272 ft | 274 kts | 339° |
| 2026-04-30 21:17 | -34.90249 | -58.50457 | 11921 ft | 279 kts | 338° |
| 2026-04-30 21:18 | -34.88400 | -58.51279 | 12472 ft | 288 kts | 335° |
| 2026-04-30 21:18 | -34.86479 | -58.52185 | 12856 ft | 303 kts | 335° |
| 2026-04-30 21:18 | -34.84480 | -58.53141 | 13363 ft | 314 kts | 335° |
| 2026-04-30 21:18 | -34.82404 | -58.54146 | 13641 ft | 332 kts | 335° |
| 2026-04-30 21:19 | -34.80196 | -58.55210 | 13868 ft | 349 kts | 335° |
| 2026-04-30 21:19 | -34.77913 | -58.56303 | 14369 ft | 355 kts | 335° |
| 2026-04-30 21:19 | -34.75615 | -58.57399 | 15040 ft | 356 kts | 335° |
| 2026-04-30 21:19 | -34.73301 | -58.58501 | 15688 ft | 358 kts | 334° |
| 2026-04-30 21:20 | -34.70975 | -58.59609 | 16344 ft | 360 kts | 334° |
| 2026-04-30 21:20 | -34.68634 | -58.60724 | 17000 ft | 362 kts | 334° |
| 2026-04-30 21:20 | -34.66286 | -58.61844 | 17639 ft | 364 kts | 334° |
| 2026-04-30 21:20 | -34.63917 | -58.62973 | 18230 ft | 367 kts | 334° |
| 2026-04-30 21:21 | -34.61535 | -58.64109 | 18769 ft | 369 kts | 334° |
| 2026-04-30 21:21 | -34.59134 | -58.65253 | 19291 ft | 372 kts | 333° |
| 2026-04-30 21:21 | -34.54289 | -58.67559 | 20385 ft | 375 kts | 333° |
| 2026-04-30 21:22 | -34.51892 | -58.68697 | 21125 ft | 372 kts | 333° |
| 2026-04-30 21:22 | -34.44738 | -58.72089 | 23259 ft | 366 kts | 332° |
| 2026-04-30 21:23 | -34.42364 | -58.73215 | 23834 ft | 366 kts | 332° |
| 2026-04-30 21:23 | -34.39993 | -58.74340 | 23920 ft | 365 kts | 332° |
| 2026-04-30 21:23 | -34.35271 | -58.76577 | 23958 ft | 365 kts | 332° |
| 2026-04-30 21:24 | -34.32918 | -58.77691 | 23966 ft | 365 kts | 332° |
| 2026-04-30 21:24 | -34.30554 | -58.78809 | 23975 ft | 365 kts | 332° |
| 2026-04-30 21:24 | -34.28190 | -58.79927 | 23977 ft | 365 kts | 333° |
| 2026-04-30 21:24 | -34.25821 | -58.81046 | 23973 ft | 365 kts | 333° |
| 2026-04-30 21:25 | -34.20975 | -58.83341 | 23981 ft | 386 kts | 333° |
| 2026-04-30 21:25 | -34.18443 | -58.84538 | 23982 ft | 396 kts | 333° |
| 2026-04-30 21:25 | -34.15844 | -58.85765 | 23967 ft | 406 kts | 333° |
| 2026-04-30 21:26 | -34.10480 | -58.88286 | 23977 ft | 421 kts | 334° |
| 2026-04-30 21:26 | -34.07727 | -58.89578 | 23971 ft | 427 kts | 334° |
| 2026-04-30 21:27 | -34.02116 | -58.92209 | 23969 ft | 437 kts | 334° |
| 2026-04-30 21:27 | -33.99265 | -58.93547 | 23968 ft | 442 kts | 334° |
| 2026-04-30 21:27 | -33.96471 | -58.94963 | 23942 ft | 441 kts | 329° |
| 2026-04-30 21:28 | -33.91258 | -58.98720 | 23965 ft | 436 kts | 324° |
| 2026-04-30 21:28 | -33.88683 | -59.00644 | 23958 ft | 436 kts | 324° |
| 2026-04-30 21:28 | -33.84836 | -59.03497 | 23971 ft | 437 kts | 324° |
| 2026-04-30 21:29 | -33.82522 | -59.05199 | 23957 ft | 437 kts | 324° |
| 2026-04-30 21:29 | -33.75788 | -59.10117 | 23948 ft | 436 kts | 325° |
| 2026-04-30 21:30 | -33.70599 | -59.13891 | 23958 ft | 436 kts | 325° |
| 2026-04-30 21:31 | -33.62815 | -59.19540 | 23958 ft | 436 kts | 325° |
| 2026-04-30 21:31 | -33.57631 | -59.23298 | 23948 ft | 435 kts | 325° |
| 2026-04-30 21:32 | -33.52444 | -59.27052 | 23951 ft | 435 kts | 325° |
| 2026-04-30 21:32 | -33.49852 | -59.28926 | 23951 ft | 435 kts | 325° |
| 2026-04-30 21:32 | -33.48139 | -59.30164 | 23951 ft | 435 kts | 325° |
| 2026-04-30 21:32 | -33.45549 | -59.32035 | 23957 ft | 435 kts | 325° |
| 2026-04-30 21:33 | -33.42954 | -59.33908 | 23948 ft | 435 kts | 325° |
| 2026-04-30 21:33 | -33.37772 | -59.37644 | 23943 ft | 435 kts | 326° |
| 2026-04-30 21:33 | -33.35179 | -59.39511 | 23942 ft | 435 kts | 326° |
| 2026-04-30 21:34 | -33.32590 | -59.41374 | 23946 ft | 435 kts | 326° |
| 2026-04-30 21:34 | -33.27405 | -59.45101 | 23945 ft | 435 kts | 326° |
| 2026-04-30 21:34 | -33.24814 | -59.46962 | 23945 ft | 435 kts | 326° |
| 2026-04-30 21:35 | -33.22221 | -59.48823 | 23940 ft | 435 kts | 326° |
| 2026-04-30 21:35 | -33.19627 | -59.50683 | 23930 ft | 435 kts | 326° |
| 2026-04-30 21:35 | -33.17032 | -59.52543 | 23937 ft | 435 kts | 326° |
| 2026-04-30 21:35 | -33.14442 | -59.54397 | 23942 ft | 435 kts | 326° |
| 2026-04-30 21:36 | -33.11847 | -59.56254 | 23941 ft | 435 kts | 326° |
| 2026-04-30 21:36 | -33.09250 | -59.58112 | 23936 ft | 435 kts | 326° |
| 2026-04-30 21:37 | -33.01442 | -59.63688 | 23929 ft | 436 kts | 327° |
| 2026-04-30 21:37 | -32.98870 | -59.65601 | 23933 ft | 435 kts | 323° |
| 2026-04-30 21:37 | -32.96447 | -59.67746 | 23946 ft | 434 kts | 321° |
| 2026-04-30 21:37 | -32.94092 | -59.69929 | 23937 ft | 435 kts | 320° |
| 2026-04-30 21:38 | -32.91717 | -59.72155 | 23938 ft | 435 kts | 320° |
| 2026-04-30 21:38 | -32.89307 | -59.74409 | 23938 ft | 435 kts | 320° |
| 2026-04-30 21:38 | -32.87745 | -59.75860 | 23928 ft | 435 kts | 320° |
| 2026-04-30 21:38 | -32.85424 | -59.78005 | 23943 ft | 435 kts | 320° |
| 2026-04-30 21:39 | -32.84082 | -59.79238 | 23936 ft | 435 kts | 320° |
| 2026-04-30 21:39 | -32.81734 | -59.81385 | 23894 ft | 404 kts | 321° |
| 2026-04-30 21:39 | -32.79610 | -59.83318 | 23905 ft | 377 kts | 321° |
| 2026-04-30 21:39 | -32.77590 | -59.85154 | 23917 ft | 361 kts | 321° |
| 2026-04-30 21:40 | -32.75596 | -59.86970 | 23926 ft | 361 kts | 320° |
| 2026-04-30 21:40 | -32.73603 | -59.88785 | 23944 ft | 358 kts | 321° |
| 2026-04-30 21:40 | -32.71670 | -59.90543 | 23922 ft | 343 kts | 321° |
| 2026-04-30 21:40 | -32.69798 | -59.92243 | 23721 ft | 334 kts | 321° |
| 2026-04-30 21:41 | -32.67988 | -59.93887 | 23452 ft | 323 kts | 321° |
| 2026-04-30 21:41 | -32.66225 | -59.95488 | 23045 ft | 314 kts | 320° |
| 2026-04-30 21:41 | -32.64512 | -59.97042 | 22680 ft | 307 kts | 320° |
| 2026-04-30 21:41 | -32.62817 | -59.98580 | 22339 ft | 307 kts | 320° |
| 2026-04-30 21:42 | -32.61119 | -60.00122 | 21977 ft | 309 kts | 320° |
| 2026-04-30 21:42 | -32.59382 | -60.01698 | 21611 ft | 320 kts | 320° |
| 2026-04-30 21:42 | -32.57590 | -60.03324 | 21239 ft | 326 kts | 321° |
| 2026-04-30 21:42 | -32.55784 | -60.04959 | 20842 ft | 326 kts | 321° |
| 2026-04-30 21:43 | -32.53981 | -60.06590 | 20463 ft | 332 kts | 321° |
| 2026-04-30 21:43 | -32.52077 | -60.08315 | 20063 ft | 360 kts | 321° |
| 2026-04-30 21:43 | -32.50043 | -60.10156 | 19609 ft | 371 kts | 321° |
| 2026-04-30 21:43 | -32.47985 | -60.12014 | 19167 ft | 372 kts | 321° |
| 2026-04-30 21:44 | -32.45934 | -60.13863 | 18724 ft | 369 kts | 321° |
| 2026-04-30 21:44 | -32.43908 | -60.15688 | 18283 ft | 366 kts | 321° |
| 2026-04-30 21:44 | -32.41884 | -60.17510 | 17801 ft | 365 kts | 321° |
| 2026-04-30 21:44 | -32.39878 | -60.19317 | 17357 ft | 361 kts | 321° |
| 2026-04-30 21:45 | -32.37883 | -60.21113 | 16921 ft | 359 kts | 321° |
| 2026-04-30 21:45 | -32.35902 | -60.22896 | 16496 ft | 356 kts | 321° |
| 2026-04-30 21:45 | -32.33976 | -60.24628 | 16088 ft | 354 kts | 322° |
| 2026-04-30 21:45 | -32.32021 | -60.26385 | 15676 ft | 352 kts | 322° |
| 2026-04-30 21:46 | -32.30075 | -60.28134 | 15261 ft | 351 kts | 322° |
| 2026-04-30 21:46 | -32.28134 | -60.29877 | 14849 ft | 350 kts | 322° |
| 2026-04-30 21:46 | -32.26198 | -60.31615 | 14423 ft | 349 kts | 322° |
| 2026-04-30 21:46 | -32.24268 | -60.33347 | 14014 ft | 348 kts | 322° |
| 2026-04-30 21:47 | -32.22338 | -60.35077 | 13581 ft | 348 kts | 322° |
| 2026-04-30 21:47 | -32.20408 | -60.36806 | 13138 ft | 347 kts | 322° |
| 2026-04-30 21:47 | -32.18491 | -60.38524 | 12710 ft | 345 kts | 322° |
| 2026-04-30 21:47 | -32.16591 | -60.40224 | 12375 ft | 341 kts | 323° |
| 2026-04-30 21:48 | -32.14713 | -60.41904 | 11930 ft | 336 kts | 323° |
| 2026-04-30 21:48 | -32.12856 | -60.43565 | 11422 ft | 335 kts | 323° |
| 2026-04-30 21:48 | -32.11004 | -60.45220 | 10532 ft | 344 kts | 323° |
| 2026-04-30 21:48 | -32.09087 | -60.46932 | 10157 ft | 338 kts | 324° |
| 2026-04-30 21:49 | -32.07274 | -60.48552 | 10195 ft | 314 kts | 323° |
| 2026-04-30 21:49 | -32.05602 | -60.50046 | 10155 ft | 291 kts | 324° |
| 2026-04-30 21:49 | -32.04047 | -60.51435 | 10032 ft | 274 kts | 324° |
| 2026-04-30 21:49 | -32.02574 | -60.52749 | 9921 ft | 258 kts | 324° |
| 2026-04-30 21:50 | -32.01171 | -60.53999 | 9661 ft | 249 kts | 324° |
| 2026-04-30 21:50 | -31.99807 | -60.55213 | 9419 ft | 246 kts | 324° |
| 2026-04-30 21:50 | -31.98444 | -60.56427 | 9154 ft | 245 kts | 324° |
| 2026-04-30 21:50 | -31.97294 | -60.57901 | 8874 ft | 247 kts | 306° |
| 2026-04-30 21:51 | -31.96430 | -60.59647 | 8619 ft | 247 kts | 302° |
| 2026-04-30 21:51 | -31.95648 | -60.61447 | 8360 ft | 246 kts | 301° |
| 2026-04-30 21:51 | -31.94896 | -60.63244 | 8134 ft | 244 kts | 301° |
| 2026-04-30 21:51 | -31.94158 | -60.65032 | 7913 ft | 241 kts | 301° |
| 2026-04-30 21:52 | -31.93430 | -60.66808 | 7693 ft | 242 kts | 301° |
| 2026-04-30 21:52 | -31.92691 | -60.68612 | 7489 ft | 247 kts | 301° |
| 2026-04-30 21:52 | -31.91929 | -60.70472 | 6985 ft | 258 kts | 301° |
| 2026-04-30 21:52 | -31.91141 | -60.72392 | 6365 ft | 265 kts | 301° |
| 2026-04-30 21:53 | -31.90345 | -60.74359 | 5746 ft | 269 kts | 299° |
| 2026-04-30 21:53 | -31.89605 | -60.76417 | 4927 ft | 280 kts | 298° |
| 2026-04-30 21:53 | -31.88839 | -60.78514 | 4397 ft | 278 kts | 298° |
| 2026-04-30 21:53 | -31.88068 | -60.80593 | 3745 ft | 279 kts | 298° |
| 2026-04-30 21:54 | -31.87329 | -60.82601 | 3406 ft | 258 kts | 297° |
| 2026-04-30 21:54 | -31.86685 | -60.84502 | 2845 ft | 243 kts | 296° |
| 2026-04-30 21:54 | -31.85969 | -60.86198 | 2462 ft | 219 kts | 314° |
| 2026-04-30 21:54 | -31.84826 | -60.87117 | 2285 ft | 185 kts | 352° |
| 2026-04-30 21:55 | -31.83637 | -60.87138 | 2179 ft | 161 kts | 7° |
| 2026-04-30 21:55 | -31.82638 | -60.86924 | 2120 ft | 136 kts | 25° |
| 2026-04-30 21:55 | -31.81795 | -60.86430 | 2031 ft | 134 kts | 26° |
| 2026-04-30 21:55 | -31.80947 | -60.85972 | 1952 ft | 136 kts | 23° |
| 2026-04-30 21:56 | -31.80072 | -60.85543 | 1824 ft | 137 kts | 23° |
| 2026-04-30 21:56 | -31.79201 | -60.85124 | 1701 ft | 138 kts | 22° |
| 2026-04-30 21:56 | -31.78311 | -60.84694 | 1475 ft | 139 kts | 23° |
| 2026-04-30 21:56 | -31.77422 | -60.84249 | 1243 ft | 139 kts | 24° |
| 2026-04-30 21:57 | -31.76527 | -60.83804 | 1023 ft | 143 kts | 23° |
| 2026-04-30 21:57 | -31.75609 | -60.83360 | 876 ft | 142 kts | 23° |
| 2026-04-30 21:57 | -31.74685 | -60.82921 | 652 ft | 147 kts | 24° |
| 2026-04-30 21:57 | -31.73750 | -60.82453 | 475 ft | 146 kts | 26° |
| 2026-04-30 21:58 | -31.72807 | -60.81990 | 272 ft | 146 kts | 26° |
| 2026-04-30 21:58 | -31.71880 | -60.81525 | 68 ft | 143 kts | 26° |
| 2026-04-30 21:58 | -31.71088 | -60.81132 | 60 ft | 98 kts | 22° |
| 2026-04-30 21:58 | -31.70642 | -60.80911 | 64 ft | 47 kts | 22° |
| 2026-04-30 21:59 | -31.70344 | -60.80765 | 67 ft | 28 kts | 22° |
| 2026-04-30 21:59 | -31.70222 | -60.80705 | 66 ft | 13 kts | 22° |
| 2026-04-30 21:59 | -31.70152 | -60.80646 | 63 ft | 12 kts | 44° |
| 2026-04-30 22:00 | -31.70176 | -60.80682 | 60 ft | 12 kts | 203° |
| 2026-04-30 22:00 | -31.70340 | -60.80763 | 67 ft | 13 kts | 202° |
| 2026-04-30 22:00 | -31.70437 | -60.80811 | 66 ft | 18 kts | 202° |
| 2026-04-30 22:01 | -31.70567 | -60.80875 | 65 ft | 21 kts | 203° |
| 2026-04-30 22:01 | -31.70677 | -60.80929 | 67 ft | 13 kts | 198° |
| 2026-04-30 22:01 | -31.70735 | -60.80870 | 66 ft | 12 kts | 114° |
| 2026-04-30 22:01 | -31.70758 | -60.80809 | 65 ft | 8 kts | 114° |
| 2026-04-30 22:02 | -31.70779 | -60.80753 | 57 ft | 7 kts | 113° |
| 2026-04-30 22:02 | -31.70800 | -60.80700 | 58 ft | 7 kts | 123° |
| 2026-04-30 22:02 | -31.70840 | -60.80691 | 60 ft | 1 kts | 194° |
| 2026-04-30 22:02 | -31.70848 | -60.80689 | 60 ft | 1 kts | 162° |
| 2026-04-30 22:03 | -31.70860 | -60.80676 | 61 ft | 4 kts | 125° |
| 2026-04-30 22:03 | -31.70877 | -60.80660 | 62 ft | 2 kts | 161° |
| 2026-04-30 22:03 | -31.70882 | -60.80659 | 60 ft | 0 kts | 161° |